Time;durP1;ratioP1;P1;durP2;ratioP2;P2;SDS_P1;SDS_P2;PMS_P1;PMS_P2;Temp;Humidity;BMP_temperature;BMP_pressure;BME280_temperature;BME280_humidity;BME280_pressure;Samples;Min_cycle;Max_cycle;Signal;HPM_P1;HPM_P2
2022/03/23 00:01:44;;;;;;;;;;;;;;;1.04;38.29;102606.37;1690274;84;20223;-70
2022/03/23 00:04:10;;;;;;;;;;;;;;;1.02;38.29;102608.00;1659518;83;20694;-69
2022/03/23 00:06:36;;;;;;;;;;;;;;;1.00;38.18;102601.95;1657499;84;20135;-70
2022/03/23 00:09:02;;;;;;;;;;;;;;;0.98;38.44;102602.25;1662127;85;20179;-70
2022/03/23 00:11:29;;;;;;;;;;;;;;;0.95;38.47;102599.14;1655689;84;20151;-70
2022/03/23 00:13:55;;;;;;;;;;;;;;;0.93;38.47;102600.73;1664068;84;20088;-70
2022/03/23 00:16:21;;;;;;;;;;;;;;;0.88;38.66;102593.23;1664428;85;20175;-69
2022/03/23 00:18:47;;;;;;;;;;;;;;;0.84;38.58;102592.58;1654672;86;20107;-69
2022/03/23 00:21:14;;;;;;;;;;;;;;;0.82;38.80;102595.84;1637542;87;20153;-70
2022/03/23 00:23:39;;;;;;;;;;;;;;;0.78;38.73;102590.97;1656703;84;20175;-69
2022/03/23 00:26:06;;;;;;;;;;;;;;;0.76;38.73;102589.13;1637429;86;20239;-69
2022/03/23 00:28:32;;;;;;;;;;;;;;;0.78;38.76;102582.06;1637741;86;20102;-69
2022/03/23 00:30:59;;;;;;;;;;;;;;;0.78;38.95;102585.00;1645206;84;20160;-69
2022/03/23 00:33:24;;;;;;;;;;;;;;;0.73;39.19;102582.20;1664546;85;20107;-69
2022/03/23 00:35:50;;;;;;;;;;;;;;;0.67;39.21;102581.86;1652568;86;20261;-69
2022/03/23 00:38:17;;;;;;;;;;;;;;;0.62;39.21;102575.23;1664517;84;20166;-70
2022/03/23 00:40:44;;;;;;;;;;;;;;;0.62;39.31;102578.17;1664502;85;20111;-70
2022/03/23 00:43:11;;;;;;;;;;;;;;;0.59;39.35;102580.55;1649917;85;20102;-69
2022/03/23 00:45:38;;;;;;;;;;;;;;;0.56;39.72;102576.16;1645984;84;20452;-69
2022/03/23 00:48:04;;;;;;;;;;;;;;;0.50;39.42;102574.58;1674859;83;20131;-69
2022/03/23 00:50:31;;;;;;;;;;;;;;;0.51;39.76;102576.73;1682520;85;20108;-69
2022/03/23 00:52:57;;;;;;;;;;;;;;;0.52;39.55;102573.39;1681924;85;20127;-69
2022/03/23 00:55:23;;;;;;;;;;;;;;;0.52;39.53;102572.97;1683509;83;20152;-70
2022/03/23 00:57:49;;;;;;;;;;;;;;;0.53;39.53;102571.30;1666735;85;20312;-70
2022/03/23 01:00:17;;;;;;;;;;;;;;;0.53;39.47;102567.48;1656056;85;20184;-70
2022/03/23 01:02:45;;;;;;;;;;;;;;;0.49;39.83;102569.02;1710958;83;20097;-70
2022/03/23 01:05:14;;;;;;;;;;;;;;;0.46;39.75;102563.75;1712329;83;20118;-69
2022/03/23 01:07:41;;;;;;;;;;;;;;;0.46;39.72;102569.23;1677038;83;20442;-69
2022/03/23 01:10:11;;;;;;;;;;;;;;;0.45;39.69;102564.94;1607340;89;20137;-70
2022/03/23 01:12:36;;;;;;;;;;;;;;;0.45;39.60;102561.12;1602532;88;20119;-70
2022/03/23 01:15:03;;;;;;;;;;;;;;;0.43;39.73;102554.67;1592526;87;20245;-69
2022/03/23 01:17:30;;;;;;;;;;;;;;;0.42;39.69;102556.73;1615934;87;20142;-69
2022/03/23 01:19:57;;;;;;;;;;;;;;;0.38;39.88;102554.80;1620923;87;20115;-69
2022/03/23 01:22:22;;;;;;;;;;;;;;;0.30;39.85;102556.91;1610964;86;20143;-70
2022/03/23 01:24:48;;;;;;;;;;;;;;;0.29;39.98;102558.09;1598670;89;20177;-70
2022/03/23 01:27:14;;;;;;;;;;;;;;;0.27;40.17;102559.28;1598895;88;20172;-70
2022/03/23 01:29:40;;;;;;;;;;;;;;;0.27;40.31;102560.95;1599621;87;20139;-70
2022/03/23 01:32:08;;;;;;;;;;;;;;;0.22;40.38;102558.14;1598987;89;20173;-70
2022/03/23 01:34:34;;;;;;;;;;;;;;;0.24;40.21;102556.56;1599478;87;20179;-70
2022/03/23 01:37:00;;;;;;;;;;;;;;;0.24;40.23;102554.02;1615357;88;20112;-70
2022/03/23 01:39:25;;;;;;;;;;;;;;;0.24;40.22;102550.60;1624385;88;20167;-70
2022/03/23 01:41:51;;;;;;;;;;;;;;;0.21;40.18;102555.12;1621568;87;20155;-70
2022/03/23 01:44:19;;;;;;;;;;;;;;;0.20;40.43;102550.81;1598658;88;20225;-70
2022/03/23 01:47:07;;;;;;;;;;;;;;;0.20;40.24;102545.73;1616488;88;21054;-70
2022/03/23 01:49:35;;;;;;;;;;;;;;;0.20;40.48;102549.55;1602310;88;20106;-69
2022/03/23 01:52:06;;;;;;;;;;;;;;;0.18;40.28;102542.62;1605975;87;20438;-69
2022/03/23 01:54:32;;;;;;;;;;;;;;;0.17;40.34;102547.22;1598460;86;20115;-69
2022/03/23 01:56:59;;;;;;;;;;;;;;;0.13;40.52;102541.48;1598777;89;20102;-70
2022/03/23 01:59:26;;;;;;;;;;;;;;;0.07;40.65;102546.22;1605485;87;20425;-69
2022/03/23 02:01:53;;;;;;;;;;;;;;;0.03;40.75;102543.89;1618060;87;20120;-70
2022/03/23 02:04:18;;;;;;;;;;;;;;;0.00;40.99;102546.28;1624362;88;20723;-70
2022/03/23 02:06:44;;;;;;;;;;;;;;;-0.05;40.94;102542.59;1614548;88;20128;-69
2022/03/23 02:09:10;;;;;;;;;;;;;;;-0.04;41.05;102538.87;1604856;88;20529;-69
2022/03/23 02:11:37;;;;;;;;;;;;;;;-0.03;41.00;102537.20;1633889;87;21154;-69
2022/03/23 02:14:03;;;;;;;;;;;;;;;-0.02;41.10;102532.21;1635470;87;20753;-69
2022/03/23 02:16:29;;;;;;;;;;;;;;;-0.01;41.03;102521.64;1620095;87;20590;-69
2022/03/23 02:18:54;;;;;;;;;;;;;;;-0.03;41.02;102524.50;1632648;87;21144;-69
2022/03/23 02:21:20;;;;;;;;;;;;;;;-0.05;41.07;102520.59;1635634;87;20163;-69
2022/03/23 02:23:46;;;;;;;;;;;;;;;-0.09;40.97;102516.12;1625853;87;20191;-69
2022/03/23 02:26:13;;;;;;;;;;;;;;;-0.09;40.95;102516.52;1617863;87;20198;-69
2022/03/23 02:28:39;;;;;;;;;;;;;;;-0.12;41.19;102511.25;1635688;87;20599;-69
2022/03/23 02:31:08;;;;;;;;;;;;;;;-0.16;41.31;102514.41;1609410;87;20139;-69
2022/03/23 02:33:34;;;;;;;;;;;;;;;-0.22;41.12;102508.56;1629815;87;20641;-69
2022/03/23 02:36:00;;;;;;;;;;;;;;;-0.25;41.21;102510.93;1629865;87;20167;-69
2022/03/23 02:38:25;;;;;;;;;;;;;;;-0.24;41.26;102513.95;1609873;88;20146;-69
2022/03/23 02:40:51;;;;;;;;;;;;;;;-0.22;41.17;102505.15;1621482;87;20762;-69
2022/03/23 02:43:18;;;;;;;;;;;;;;;-0.24;41.42;102510.14;1635651;87;20155;-69
2022/03/23 02:45:44;;;;;;;;;;;;;;;-0.26;41.48;102509.17;1633504;86;21086;-69
2022/03/23 02:48:09;;;;;;;;;;;;;;;-0.30;41.73;102507.25;1603921;88;20740;-70
2022/03/23 02:50:35;;;;;;;;;;;;;;;-0.39;41.62;102511.39;1629996;87;20810;-70
2022/03/23 03:01:54;;;;;;;;;;;;;;;-0.46;41.83;102508.01;1617959;88;20104;-69
2022/03/23 03:04:23;;;;;;;;;;;;;;;-0.42;42.06;102502.32;1610013;88;20156;-70
2022/03/23 03:06:49;;;;;;;;;;;;;;;-0.42;41.97;102512.88;1622907;87;20100;-69
2022/03/23 03:09:15;;;;;;;;;;;;;;;-0.48;42.11;102512.52;1602635;88;20806;-70
2022/03/23 03:11:43;;;;;;;;;;;;;;;-0.51;42.19;102508.52;1623844;87;20586;-69
2022/03/23 03:14:10;;;;;;;;;;;;;;;-0.53;42.07;102512.67;1623596;87;20766;-70
2022/03/23 03:16:36;;;;;;;;;;;;;;;-0.58;41.88;102506.05;1612784;88;20133;-70
2022/03/23 03:19:06;;;;;;;;;;;;;;;-0.55;41.97;102507.89;1613005;88;20273;-69
2022/03/23 03:21:32;;;;;;;;;;;;;;;-0.52;41.82;102505.11;1629567;87;20812;-69
2022/03/23 03:23:58;;;;;;;;;;;;;;;-0.50;42.33;102508.61;1626331;87;20146;-69
2022/03/23 03:26:24;;;;;;;;;;;;;;;-0.50;42.11;102507.73;1623515;88;20923;-70
2022/03/23 03:28:50;;;;;;;;;;;;;;;-0.55;42.05;102501.14;1624280;88;20699;-69
2022/03/23 03:31:18;;;;;;;;;;;;;;;-0.57;42.36;102498.91;1633402;87;20492;-69
2022/03/23 03:33:44;;;;;;;;;;;;;;;-0.57;42.17;102505.26;1621755;87;20631;-69
2022/03/23 03:36:10;;;;;;;;;;;;;;;-0.57;42.69;102494.22;1615705;87;20799;-69
2022/03/23 03:38:37;;;;;;;;;;;;;;;-0.60;42.38;102496.58;1635585;87;20487;-69
2022/03/23 03:41:04;;;;;;;;;;;;;;;-0.64;42.34;102492.98;1616043;87;20492;-69
2022/03/23 03:43:31;;;;;;;;;;;;;;;-0.69;42.29;102491.44;1598567;89;20128;-70
2022/03/23 03:45:58;;;;;;;;;;;;;;;-0.71;42.34;102493.00;1624471;87;20803;-70
2022/03/23 03:48:24;;;;;;;;;;;;;;;-0.71;42.40;102492.13;1609293;88;20827;-69
2022/03/23 03:50:50;;;;;;;;;;;;;;;-0.80;42.40;102497.92;1604149;89;20560;-69
2022/03/23 03:53:17;;;;;;;;;;;;;;;-0.88;42.86;102500.39;1586630;88;20540;-69
2022/03/23 03:55:43;;;;;;;;;;;;;;;-0.93;42.81;102497.58;1579737;89;20394;-69
2022/03/23 03:58:09;;;;;;;;;;;;;;;-0.93;42.84;102498.84;1598944;88;20510;-69
2022/03/23 04:00:35;;;;;;;;;;;;;;;-0.94;43.14;102505.09;1610083;88;20132;-69
2022/03/23 04:03:02;;;;;;;;;;;;;;;-0.96;42.88;102505.39;1590875;88;20202;-69
2022/03/23 04:05:29;;;;;;;;;;;;;;;-0.93;42.71;102505.19;1580111;88;20451;-69
2022/03/23 04:07:56;;;;;;;;;;;;;;;-0.92;42.76;102509.88;1598327;88;20138;-69
2022/03/23 04:10:23;;;;;;;;;;;;;;;-0.89;42.84;102509.67;1584599;89;20390;-69
2022/03/23 04:12:49;;;;;;;;;;;;;;;-0.89;42.91;102511.33;1594699;88;20368;-69
2022/03/23 04:15:15;;;;;;;;;;;;;;;-0.94;43.14;102508.91;1601718;88;20225;-70
2022/03/23 04:17:43;;;;;;;;;;;;;;;-0.95;42.97;102506.76;1600430;86;20150;-69
2022/03/23 04:20:10;;;;;;;;;;;;;;;-0.94;42.90;102506.37;1604185;89;20153;-69
2022/03/23 04:22:38;;;;;;;;;;;;;;;-0.93;42.96;102500.11;1603204;88;20157;-68
2022/03/23 04:25:04;;;;;;;;;;;;;;;-0.95;43.04;102499.14;1585710;88;20104;-70
2022/03/23 04:27:30;;;;;;;;;;;;;;;-0.96;43.29;102502.86;1577707;89;20210;-69
2022/03/23 04:29:56;;;;;;;;;;;;;;;-1.00;43.22;102505.21;1579108;88;20216;-69
2022/03/23 04:32:22;;;;;;;;;;;;;;;-1.05;43.10;102505.75;1592938;88;20536;-69
2022/03/23 04:34:48;;;;;;;;;;;;;;;-1.05;43.47;102509.16;1587164;89;20216;-69
2022/03/23 04:37:14;;;;;;;;;;;;;;;-1.04;43.39;102505.80;1579162;88;20834;-69
2022/03/23 04:39:40;;;;;;;;;;;;;;;-0.99;43.51;102512.44;1610850;86;200705;-69
2022/03/23 04:42:07;;;;;;;;;;;;;;;-0.98;43.57;102519.66;1612697;88;20878;-69
2022/03/23 04:44:33;;;;;;;;;;;;;;;-1.03;43.67;102517.72;1635375;86;20099;-69
2022/03/23 04:46:59;;;;;;;;;;;;;;;-1.06;43.84;102519.22;1625303;86;20187;-69
2022/03/23 04:49:24;;;;;;;;;;;;;;;-1.04;43.61;102517.66;1614311;89;20167;-69
2022/03/23 04:51:51;;;;;;;;;;;;;;;-1.02;43.70;102512.25;1631994;86;21210;-69
2022/03/23 04:54:17;;;;;;;;;;;;;;;-1.00;44.00;102511.55;1621460;86;20105;-69
2022/03/23 04:56:43;;;;;;;;;;;;;;;-0.95;44.16;102513.50;1603292;87;20133;-69
2022/03/23 04:59:09;;;;;;;;;;;;;;;-0.98;43.78;102512.05;1623313;86;20179;-69
2022/03/23 05:01:35;;;;;;;;;;;;;;;-1.01;43.74;102510.19;1630051;86;20244;-69
2022/03/23 05:04:02;;;;;;;;;;;;;;;-1.03;43.79;102509.22;1640573;86;20143;-69
2022/03/23 05:06:28;;;;;;;;;;;;;;;-1.03;43.97;102507.56;1638974;86;20163;-69
2022/03/23 05:08:54;;;;;;;;;;;;;;;-1.03;43.96;102508.83;1640357;86;20450;-69
2022/03/23 05:11:20;;;;;;;;;;;;;;;-1.02;43.82;102507.17;1640544;86;20126;-69
2022/03/23 05:13:46;;;;;;;;;;;;;;;-0.98;43.92;102509.50;1640455;86;20224;-69
2022/03/23 05:16:19;;;;;;;;;;;;;;;-0.93;44.06;102505.59;1639923;86;20149;-69
2022/03/23 05:18:45;;;;;;;;;;;;;;;-0.93;44.10;102509.00;1640091;87;20098;-69
2022/03/23 05:21:10;;;;;;;;;;;;;;;-0.91;44.17;102501.09;1640726;86;20276;-69
2022/03/23 05:23:36;;;;;;;;;;;;;;;-0.87;44.18;102504.30;1639393;86;20157;-69
2022/03/23 05:26:02;;;;;;;;;;;;;;;-0.84;44.19;102497.25;1639473;86;20237;-69
2022/03/23 05:28:28;;;;;;;;;;;;;;;-0.84;44.23;102499.80;1640722;86;20824;-69
2022/03/23 05:30:54;;;;;;;;;;;;;;;-0.83;44.31;102493.54;1634902;86;20198;-69
2022/03/23 05:33:20;;;;;;;;;;;;;;;-0.78;44.35;102497.63;1619034;87;20191;-69
2022/03/23 05:35:45;;;;;;;;;;;;;;;-0.75;44.53;102499.95;1629155;86;20190;-69
2022/03/23 05:38:11;;;;;;;;;;;;;;;-0.67;44.57;102505.10;1640489;86;20161;-69
2022/03/23 05:40:37;;;;;;;;;;;;;;;-0.57;44.66;102500.57;1626051;86;20608;-69
2022/03/23 05:43:03;;;;;;;;;;;;;;;-0.45;44.79;102499.99;1636526;86;20177;-69
2022/03/23 05:45:29;;;;;;;;;;;;;;;-0.27;44.81;102500.19;1635670;86;20979;-69
2022/03/23 05:47:56;;;;;;;;;;;;;;;-0.15;45.11;102499.23;1634304;86;20169;-69
2022/03/23 05:50:22;;;;;;;;;;;;;;;-0.01;44.98;102500.03;1634383;86;20146;-69
2022/03/23 05:52:48;;;;;;;;;;;;;;;0.16;45.19;102498.41;1637668;86;20173;-69
2022/03/23 05:55:14;;;;;;;;;;;;;;;0.32;45.24;102498.48;1635723;85;20848;-69
2022/03/23 05:57:40;;;;;;;;;;;;;;;0.46;45.20;102497.58;1623468;86;20327;-70
2022/03/23 06:00:08;;;;;;;;;;;;;;;0.60;45.07;102499.19;1637215;86;20213;-69
2022/03/23 06:02:34;;;;;;;;;;;;;;;0.74;45.27;102493.56;1633864;86;20091;-69
2022/03/23 06:05:00;;;;;;;;;;;;;;;0.92;45.26;102498.77;1637575;86;20765;-69
2022/03/23 06:07:26;;;;;;;;;;;;;;;1.11;45.27;102491.28;1638293;86;20494;-69
2022/03/23 06:09:52;;;;;;;;;;;;;;;1.34;45.31;102496.30;1639704;86;20242;-69
2022/03/23 06:12:18;;;;;;;;;;;;;;;1.56;45.37;102500.39;1638697;86;20221;-69
2022/03/23 06:14:44;;;;;;;;;;;;;;;1.86;45.57;102497.63;1636478;86;20952;-69
2022/03/23 06:17:10;;;;;;;;;;;;;;;2.19;45.62;102488.17;1639345;86;20167;-69
2022/03/23 06:19:36;;;;;;;;;;;;;;;2.44;45.66;102488.94;1636097;86;20132;-69
2022/03/23 06:22:03;;;;;;;;;;;;;;;2.78;45.67;102489.67;1635306;86;20224;-69
2022/03/23 06:24:29;;;;;;;;;;;;;;;3.17;45.71;102490.56;1631273;86;20433;-69
2022/03/23 06:26:55;;;;;;;;;;;;;;;3.62;45.65;102497.20;1628746;86;20198;-69
2022/03/23 06:29:21;;;;;;;;;;;;;;;4.06;45.51;102493.91;1639500;86;20234;-70
2022/03/23 06:31:47;;;;;;;;;;;;;;;4.41;45.38;102493.13;1623425;87;20167;-70
2022/03/23 06:34:12;;;;;;;;;;;;;;;4.71;45.24;102491.72;1610968;87;20751;-70
2022/03/23 06:36:41;;;;;;;;;;;;;;;5.08;45.18;102495.66;1627741;86;20123;-70
2022/03/23 06:39:07;;;;;;;;;;;;;;;5.44;45.24;102492.23;1633164;86;20601;-70
2022/03/23 06:41:32;;;;;;;;;;;;;;;5.79;45.19;102494.70;1634166;86;20275;-70
2022/03/23 06:43:59;;;;;;;;;;;;;;;6.12;45.10;102493.70;1631547;86;20208;-70
2022/03/23 06:46:25;;;;;;;;;;;;;;;6.51;45.13;102496.21;1630150;86;20158;-70
2022/03/23 06:48:51;;;;;;;;;;;;;;;6.87;45.11;102490.41;1633778;86;20218;-70
2022/03/23 06:51:17;;;;;;;;;;;;;;;7.14;45.19;102491.20;1617100;86;20221;-70
2022/03/23 06:53:44;;;;;;;;;;;;;;;7.48;45.30;102496.83;1629554;86;20220;-70
2022/03/23 06:56:13;;;;;;;;;;;;;;;7.80;45.18;102496.35;1631051;86;20113;-70
2022/03/23 06:58:38;;;;;;;;;;;;;;;8.09;45.08;102489.77;1627714;86;20253;-70
2022/03/23 07:01:04;;;;;;;;;;;;;;;8.36;45.06;102493.42;1631600;86;20178;-70
2022/03/23 07:03:30;;;;;;;;;;;;;;;8.71;45.06;102491.64;1627734;86;20154;-70
2022/03/23 07:05:56;;;;;;;;;;;;;;;9.08;45.01;102494.55;1616683;86;20168;-70
2022/03/23 07:11:11;;;;;;;;;;;;;;;10.08;44.93;102489.02;1629555;86;20151;-70
2022/03/23 07:13:37;;;;;;;;;;;;;;;10.77;44.79;102492.20;1629600;86;20179;-70
2022/03/23 07:16:04;;;;;;;;;;;;;;;11.22;44.46;102495.77;1632521;86;20176;-70
2022/03/23 07:18:30;;;;;;;;;;;;;;;11.52;44.20;102493.91;1635268;86;20090;-70
2022/03/23 07:20:56;;;;;;;;;;;;;;;11.57;43.96;102495.69;1611529;87;20175;-70
2022/03/23 07:23:22;;;;;;;;;;;;;;;11.52;44.06;102491.31;1610021;87;20180;-70
2022/03/23 07:25:47;;;;;;;;;;;;;;;11.52;43.98;102492.60;1683017;83;20216;-70
2022/03/23 07:28:14;;;;;;;;;;;;;;;11.60;44.38;102485.78;1637360;85;20132;-70
2022/03/23 07:30:40;;;;;;;;;;;;;;;11.80;44.39;102493.34;1602109;87;20172;-70
2022/03/23 07:33:06;;;;;;;;;;;;;;;11.96;44.39;102488.30;1687250;83;20418;-70
2022/03/23 07:35:32;;;;;;;;;;;;;;;12.14;44.12;102489.28;1685659;83;20212;-70
2022/03/23 07:37:58;;;;;;;;;;;;;;;12.26;44.30;102489.80;1676223;83;20189;-70
2022/03/23 07:40:24;;;;;;;;;;;;;;;12.54;44.23;102486.50;1686217;83;20186;-70
2022/03/23 07:42:50;;;;;;;;;;;;;;;12.85;44.26;102489.27;1686018;83;20549;-70
2022/03/23 07:45:16;;;;;;;;;;;;;;;13.10;44.12;102485.02;1682478;83;20168;-70
2022/03/23 07:47:42;;;;;;;;;;;;;;;13.27;44.15;102489.00;1685180;83;20367;-70
2022/03/23 07:50:08;;;;;;;;;;;;;;;13.45;44.13;102487.31;1639738;85;20242;-70
2022/03/23 07:52:34;;;;;;;;;;;;;;;13.63;44.10;102489.48;1685991;83;20532;-70
2022/03/23 07:55:00;;;;;;;;;;;;;;;13.74;44.06;102486.03;1684537;83;20197;-70
2022/03/23 07:57:27;;;;;;;;;;;;;;;13.90;43.83;102481.71;1640810;85;20250;-70
2022/03/23 07:59:57;;;;;;;;;;;;;;;14.04;43.94;102479.08;1683269;83;20129;-70
2022/03/23 08:02:23;;;;;;;;;;;;;;;14.17;43.85;102483.41;1672850;83;20113;-70
2022/03/23 08:04:50;;;;;;;;;;;;;;;14.35;43.94;102472.98;1670214;83;20504;-70
2022/03/23 08:07:16;;;;;;;;;;;;;;;14.47;43.67;102474.29;1680765;83;20128;-70
2022/03/23 08:09:41;;;;;;;;;;;;;;;14.65;44.07;102472.04;1667395;83;20097;-70
2022/03/23 08:12:08;;;;;;;;;;;;;;;14.89;43.93;102473.26;1684162;83;20191;-70
2022/03/23 08:14:33;;;;;;;;;;;;;;;15.08;43.78;102478.36;1642240;85;20134;-70
2022/03/23 08:17:01;;;;;;;;;;;;;;;15.12;43.76;102478.33;1619404;87;20135;-70
2022/03/23 08:19:27;;;;;;;;;;;;;;;15.11;43.71;102474.44;1681802;83;20087;-70
2022/03/23 08:21:53;;;;;;;;;;;;;;;15.20;43.48;102472.65;1637861;85;20226;-70
2022/03/23 08:24:19;;;;;;;;;;;;;;;15.35;43.32;102473.00;1687734;83;20105;-70
2022/03/23 08:26:46;;;;;;;;;;;;;;;15.44;43.12;102467.73;1682478;83;20125;-70
2022/03/23 08:29:12;;;;;;;;;;;;;;;15.53;43.14;102461.59;1633912;85;20548;-70
2022/03/23 08:31:38;;;;;;;;;;;;;;;15.54;42.83;102462.88;1622112;86;20174;-70
2022/03/23 08:34:07;;;;;;;;;;;;;;;15.47;42.59;102468.15;1621733;87;20212;-70
2022/03/23 08:36:33;;;;;;;;;;;;;;;15.43;42.70;102459.48;1623791;87;20411;-70
2022/03/23 08:38:59;;;;;;;;;;;;;;;15.41;42.68;102459.93;1619251;87;20098;-70
2022/03/23 08:41:25;;;;;;;;;;;;;;;15.40;42.49;102458.63;1683894;83;20106;-70
2022/03/23 08:43:51;;;;;;;;;;;;;;;15.45;42.60;102448.61;1678940;83;20133;-70
2022/03/23 08:46:17;;;;;;;;;;;;;;;15.56;42.63;102458.96;1680847;83;20219;-70
2022/03/23 08:48:43;;;;;;;;;;;;;;;15.62;42.37;102455.45;1635657;85;20110;-70
2022/03/23 08:51:09;;;;;;;;;;;;;;;15.64;42.39;102454.55;1663871;83;20158;-70
2022/03/23 08:53:38;;;;;;;;;;;;;;;15.64;42.25;102451.95;1644295;85;20157;-70
2022/03/23 08:56:03;;;;;;;;;;;;;;;15.61;42.17;102449.36;1644779;86;20120;-70
2022/03/23 08:58:28;;;;;;;;;;;;;;;15.60;42.01;102448.94;1649729;86;20215;-70
2022/03/23 09:00:54;;;;;;;;;;;;;;;15.56;41.78;102448.53;1646739;85;20720;-70
2022/03/23 09:03:20;;;;;;;;;;;;;;;15.47;41.79;102448.16;1646358;86;20681;-70
2022/03/23 09:05:46;;;;;;;;;;;;;;;15.39;41.89;102449.95;1639047;86;20141;-70
2022/03/23 09:08:12;;;;;;;;;;;;;;;15.28;41.76;102451.75;1642384;85;20192;-70
2022/03/23 09:10:38;;;;;;;;;;;;;;;15.10;41.39;102441.00;1645568;86;20253;-70
2022/03/23 09:13:05;;;;;;;;;;;;;;;15.02;41.46;102445.85;1648747;85;20138;-70
2022/03/23 09:15:31;;;;;;;;;;;;;;;14.98;41.32;102441.53;1639744;85;20776;-70
2022/03/23 09:18:01;;;;;;;;;;;;;;;14.87;41.32;102437.23;1634778;85;20240;-70
2022/03/23 09:20:30;;;;;;;;;;;;;;;14.83;41.22;102439.86;1640433;86;21133;-70
2022/03/23 09:22:57;;;;;;;;;;;;;;;14.79;41.26;102431.62;1589457;88;20225;-70
2022/03/23 09:25:27;;;;;;;;;;;;;;;14.75;41.10;102432.08;1598328;88;20465;-70
2022/03/23 09:27:53;;;;;;;;;;;;;;;14.71;40.71;102426.45;1595940;88;20160;-70
2022/03/23 09:30:19;;;;;;;;;;;;;;;14.67;40.96;102430.37;1589643;88;20206;-70
2022/03/23 09:32:46;;;;;;;;;;;;;;;14.63;40.61;102432.56;1593098;88;20120;-70
2022/03/23 09:35:13;;;;;;;;;;;;;;;14.61;40.73;102427.36;1594692;88;20145;-70
2022/03/23 09:37:49;;;;;;;;;;;;;;;14.58;40.59;102432.14;1589316;88;20147;-70
2022/03/23 09:40:24;;;;;;;;;;;;;;;14.56;40.51;102429.97;1599515;88;20123;-70
2022/03/23 09:42:49;;;;;;;;;;;;;;;14.61;40.46;102429.09;1612647;88;20132;-70
2022/03/23 09:45:28;;;;;;;;;;;;;;;14.67;40.53;102423.42;1609698;88;21026;-70
2022/03/23 09:47:43;;;;;;;;;;;;;;;14.75;40.40;102426.00;1592277;88;20161;-70
2022/03/23 09:50:09;;;;;;;;;;;;;;;14.84;40.23;102422.92;1604236;86;20126;-70
2022/03/23 09:52:36;;;;;;;;;;;;;;;14.88;40.15;102422.47;1641414;86;20489;-70
2022/03/23 09:55:01;;;;;;;;;;;;;;;14.93;40.17;102414.20;1627203;86;20109;-70
2022/03/23 09:57:29;;;;;;;;;;;;;;;14.95;39.95;102408.98;1641401;86;20130;-70
2022/03/23 09:59:54;;;;;;;;;;;;;;;14.99;40.00;102410.70;1639874;85;20202;-70
2022/03/23 10:02:41;;;;;;;;;;;;;;;15.00;39.97;102409.39;1638324;86;20151;-70
2022/03/23 10:05:19;;;;;;;;;;;;;;;15.04;39.85;102415.45;1642147;86;20439;-70
2022/03/23 10:08:20;;;;;;;;;;;;;;;15.09;39.85;102408.00;1638158;85;20438;-70
2022/03/23 10:11:18;;;;;;;;;;;;;;;15.17;39.75;102410.13;1635118;86;20139;-70
2022/03/23 10:14:20;;;;;;;;;;;;;;;15.23;39.66;102406.61;1634405;86;20126;-70
2022/03/23 10:17:07;;;;;;;;;;;;;;;15.29;39.44;102402.66;1637005;86;20098;-70
2022/03/23 10:19:33;;;;;;;;;;;;;;;15.33;39.59;102393.95;1641319;86;20537;-70
2022/03/23 10:22:08;;;;;;;;;;;;;;;15.37;39.47;102389.58;1638211;86;21084;-70
2022/03/23 10:24:34;;;;;;;;;;;;;;;15.41;39.24;102392.59;1630766;86;20139;-71
2022/03/23 10:27:05;;;;;;;;;;;;;;;15.45;39.26;102387.34;1641496;86;20156;-71
2022/03/23 10:29:32;;;;;;;;;;;;;;;15.49;39.16;102380.36;1637068;86;20430;-70
2022/03/23 10:32:11;;;;;;;;;;;;;;;15.60;39.21;102376.39;1625410;86;20102;-70
2022/03/23 10:34:43;;;;;;;;;;;;;;;15.70;39.12;102375.41;1641271;86;20553;-70
2022/03/23 10:37:29;;;;;;;;;;;;;;;15.83;39.19;102371.36;1630148;86;20118;-70
2022/03/23 10:39:57;;;;;;;;;;;;;;;15.92;38.90;102371.72;1636792;86;20150;-70
2022/03/23 10:42:28;;;;;;;;;;;;;;;16.04;38.50;102366.81;1624532;86;20112;-71
2022/03/23 10:45:08;;;;;;;;;;;;;;;16.13;38.92;102365.37;1643018;86;20605;-70
2022/03/23 10:47:35;;;;;;;;;;;;;;;16.20;38.67;102365.30;1628678;85;20561;-70
2022/03/23 10:50:20;;;;;;;;;;;;;;;16.29;38.79;102356.49;1632630;86;20602;-70
2022/03/23 10:53:01;;;;;;;;;;;;;;;16.40;38.48;102352.45;1639269;85;20625;-70
2022/03/23 10:55:32;;;;;;;;;;;;;;;16.52;38.50;102353.16;1644446;85;20151;-70
2022/03/23 10:58:05;;;;;;;;;;;;;;;16.60;38.55;102352.20;1630407;85;20173;-70
2022/03/23 11:00:38;;;;;;;;;;;;;;;16.68;38.33;102343.82;1628132;85;20437;-70
2022/03/23 11:03:07;;;;;;;;;;;;;;;16.73;38.20;102344.18;1630639;86;20339;-70
2022/03/23 11:05:45;;;;;;;;;;;;;;;16.79;38.25;102340.62;1796184;78;20173;-70
2022/03/23 11:08:21;;;;;;;;;;;;;;;16.74;37.91;102337.20;1765760;80;20457;-70
2022/03/23 11:16:30;;;;;;;;;;;;;;;16.75;37.53;102320.20;1757037;80;20592;-69
2022/03/23 11:18:57;;;;;;;;;;;;;;;16.80;37.54;102313.16;1756288;80;20096;-70
2022/03/23 11:21:24;;;;;;;;;;;;;;;16.85;37.69;102312.66;1768783;80;20455;-70
2022/03/23 11:23:50;;;;;;;;;;;;;;;16.99;37.49;102316.37;1772564;80;20466;-70
2022/03/23 11:26:16;;;;;;;;;;;;;;;17.09;37.00;102308.80;1777808;80;20119;-70
2022/03/23 11:28:45;;;;;;;;;;;;;;;17.17;37.23;102306.90;1750837;80;20289;-70
2022/03/23 11:31:13;;;;;;;;;;;;;;;17.24;36.70;102312.03;1749985;80;20114;-70
2022/03/23 11:33:39;;;;;;;;;;;;;;;17.31;36.67;102304.06;1764235;80;20470;-70
2022/03/23 11:36:09;;;;;;;;;;;;;;;17.36;36.46;102299.61;1760906;80;20159;-70
2022/03/23 11:38:37;;;;;;;;;;;;;;;17.42;36.47;102297.34;1761275;80;20118;-70
2022/03/23 11:41:05;;;;;;;;;;;;;;;17.49;36.25;102293.28;1696513;83;20435;-70
2022/03/23 11:43:34;;;;;;;;;;;;;;;17.49;36.29;102288.05;1682947;83;20143;-70
2022/03/23 11:46:02;;;;;;;;;;;;;;;17.52;36.53;102289.75;1717643;82;20420;-70
2022/03/23 11:49:00;;;;;;;;;;;;;;;17.52;36.23;102287.13;1712394;82;20101;-70
2022/03/23 11:51:54;;;;;;;;;;;;;;;17.53;36.12;102290.17;1701784;82;20115;-70
2022/03/23 11:57:54;;;;;;;;;;;;;;;17.57;35.96;102282.68;1721419;82;20108;-70
2022/03/23 12:00:21;;;;;;;;;;;;;;;17.62;35.50;102270.83;1718600;82;20452;-70
2022/03/23 12:02:47;;;;;;;;;;;;;;;17.63;35.58;102273.86;1709593;82;20093;-70
2022/03/23 12:05:30;;;;;;;;;;;;;;;17.65;35.85;102270.36;1703363;82;20776;-70
2022/03/23 12:07:56;;;;;;;;;;;;;;;17.69;35.61;102269.38;1707694;83;20102;-70
2022/03/23 12:10:26;;;;;;;;;;;;;;;17.69;35.54;102258.91;1690281;83;20095;-70
2022/03/23 12:12:52;;;;;;;;;;;;;;;17.73;35.31;102261.88;1707764;83;20105;-70
2022/03/23 12:15:23;;;;;;;;;;;;;;;17.74;35.19;102257.52;1704045;83;20742;-70
2022/03/23 12:17:59;;;;;;;;;;;;;;;17.75;34.65;102250.94;1707647;83;20111;-70
2022/03/23 12:20:31;;;;;;;;;;;;;;;17.77;35.32;102251.77;1705954;82;20093;-70
2022/03/23 12:23:13;;;;;;;;;;;;;;;17.77;35.35;102246.98;1709683;83;20123;-70
2022/03/23 12:25:55;;;;;;;;;;;;;;;17.76;34.92;102242.20;1706773;82;20216;-70
2022/03/23 12:28:36;;;;;;;;;;;;;;;17.76;34.90;102239.58;1707449;83;20354;-70
2022/03/23 12:31:08;;;;;;;;;;;;;;;17.80;34.88;102233.84;1651722;85;20458;-70
2022/03/23 12:33:55;;;;;;;;;;;;;;;17.79;34.81;102238.66;1713130;83;20129;-70
2022/03/23 12:36:27;;;;;;;;;;;;;;;17.83;34.78;102228.55;1704041;83;20146;-70
2022/03/23 12:38:59;;;;;;;;;;;;;;;17.82;34.73;102225.07;1704039;82;20201;-70
2022/03/23 12:41:29;;;;;;;;;;;;;;;17.77;34.54;102223.44;1705155;83;20468;-70
2022/03/23 12:43:55;;;;;;;;;;;;;;;17.78;34.38;102217.31;1693846;83;20196;-70
2022/03/23 12:46:26;;;;;;;;;;;;;;;17.81;34.58;102213.33;1695550;83;20263;-70
2022/03/23 13:00:25;;;;;;;;;;;;;;;17.88;34.34;102200.53;1702525;83;20107;-70
2022/03/23 13:02:42;;;;;;;;;;;;;;;17.92;34.44;102197.41;1701002;83;20137;-70
2022/03/23 13:05:08;;;;;;;;;;;;;;;17.97;34.01;102189.87;1717070;82;20151;-70
2022/03/23 13:07:40;;;;;;;;;;;;;;;18.01;34.35;102190.22;1741600;82;20167;-70
2022/03/23 13:10:14;;;;;;;;;;;;;;;18.04;34.08;102187.53;1727565;82;20106;-70
2022/03/23 13:12:40;;;;;;;;;;;;;;;18.09;33.99;102178.27;1732308;82;20114;-70
2022/03/23 13:15:11;;;;;;;;;;;;;;;18.10;33.64;102175.62;1723125;82;20105;-70
2022/03/23 13:17:45;;;;;;;;;;;;;;;18.14;34.03;102181.20;1733524;82;20108;-73